Buford, Ohio
Current Conditions -  °F | °C
As of 8:54 AM on Monday 20 Oct 2014 (Local Time) from KILN Reporting Station
Overcast Overcast  
Wind Chill: 43°   Ceiling: 9000
Heat Index: 47°   Visibility: 10mi
Dew Point: 42°   Wind: 8mph
Humidity: 83%   Direction: 190°S
Pressure: 30"   Gusts: NA
Location:  39.08°N, 83.84°W
Report Text: KILN 201254Z AUTO 19007KT 10SM OVC090 08/06 A3000 RMK AO2 SLP171 T00830056
Loading
Personal Weather Stations






























Interactive Weather Map
Tropical Storm Tracking
New forecast layout! Learn more

10-Day Weather Forecast

Advertisements
Track Severe Weather on mobile